Time;durP1;ratioP1;P1;durP2;ratioP2;P2;SDS_P1;SDS_P2;PMS_P1;PMS_P2;Temp;Humidity;BMP_temperature;BMP_pressure;BME280_temperature;BME280_humidity;BME280_pressure;Samples;Min_cycle;Max_cycle;Signal;HPM_P1;HPM_P2
2022/12/27 00:02:01;;;;;;;9.43;2.13;;;4.20;99.90;;;;;;5017421;28;20045;-30
2022/12/27 00:04:27;;;;;;;13.27;1.52;;;4.20;99.90;;;;;;5034402;28;20041;-30
2022/12/27 00:06:52;;;;;;;6.13;1.20;;;4.20;99.90;;;;;;5034322;28;20052;-30
2022/12/27 00:09:18;;;;;;;8.10;0.95;;;4.20;99.90;;;;;;5035117;28;20053;-30
2022/12/27 00:11:44;;;;;;;11.48;1.33;;;4.20;99.90;;;;;;5017991;28;20053;-30
2022/12/27 00:14:10;;;;;;;16.02;1.75;;;4.00;99.90;;;;;;5035164;28;20479;-30
2022/12/27 00:16:37;;;;;;;13.98;1.95;;;4.00;99.90;;;;;;5035386;28;20045;-29
2022/12/27 00:19:03;;;;;;;13.98;1.77;;;3.90;99.90;;;;;;5034778;28;20391;-30
2022/12/27 00:21:29;;;;;;;9.40;1.15;;;3.90;99.90;;;;;;5035014;28;20057;-30
2022/12/27 00:23:56;;;;;;;12.15;1.70;;;3.90;99.90;;;;;;5034948;28;20395;-30
2022/12/27 00:26:30;;;;;;;10.65;1.27;;;3.90;99.90;;;;;;5035203;28;20543;-30
2022/12/27 00:28:55;;;;;;;18.52;2.90;;;4.00;99.90;;;;;;5035736;28;20545;-30
2022/12/27 00:31:22;;;;;;;10.20;1.75;;;3.80;99.90;;;;;;5034786;28;20132;-30
2022/12/27 00:33:50;;;;;;;8.75;1.50;;;3.90;99.90;;;;;;5034800;28;20403;-30
2022/12/27 00:36:21;;;;;;;14.00;1.77;;;3.90;99.90;;;;;;5035285;28;20049;-30
2022/12/27 00:38:47;;;;;;;8.55;1.65;;;3.90;99.90;;;;;;5034574;28;20131;-29
2022/12/27 00:41:13;;;;;;;9.90;1.80;;;3.60;99.90;;;;;;5034609;28;20046;-30
2022/12/27 00:43:39;;;;;;;15.18;1.95;;;3.90;99.90;;;;;;5034550;28;20450;-30
2022/12/27 00:46:06;;;;;;;13.00;1.90;;;3.80;99.90;;;;;;5034519;28;20041;-29
2022/12/27 00:48:36;;;;;;;12.07;2.03;;;3.80;99.90;;;;;;5034468;28;20081;-29
2022/12/27 00:51:12;;;;;;;9.38;1.00;;;3.80;99.90;;;;;;5034272;28;20042;-29
2022/12/27 00:53:38;;;;;;;10.95;1.70;;;4.00;99.90;;;;;;5035062;28;20099;-30
2022/12/27 00:56:21;;;;;;;12.93;2.20;;;4.10;99.90;;;;;;5034786;28;20045;-30
2022/12/27 00:58:54;;;;;;;7.18;2.22;;;4.90;99.90;;;;;;5034436;28;20046;-30
2022/12/27 01:01:21;;;;;;;5.57;1.45;;;4.40;99.90;;;;;;5033908;28;20049;-30
2022/12/27 01:03:47;;;;;;;12.82;1.67;;;4.40;99.90;;;;;;5032534;28;20494;-30
2022/12/27 01:06:16;;;;;;;10.43;1.67;;;4.60;99.90;;;;;;5034237;28;20055;-29
2022/12/27 01:08:42;;;;;;;10.90;1.83;;;4.50;99.90;;;;;;5033158;28;20042;-30
2022/12/27 01:11:09;;;;;;;9.95;1.40;;;4.60;99.90;;;;;;5034151;28;20049;-29
2022/12/27 01:13:36;;;;;;;11.52;1.90;;;4.70;99.90;;;;;;5016944;28;20053;-30
2022/12/27 01:16:11;;;;;;;11.18;1.77;;;4.60;99.90;;;;;;5034043;28;20088;-30
2022/12/27 01:18:37;;;;;;;7.80;1.38;;;4.50;99.90;;;;;;5034271;28;20120;-29
2022/12/27 01:21:12;;;;;;;10.23;1.50;;;4.50;99.90;;;;;;5033950;28;20129;-29
2022/12/27 01:23:38;;;;;;;11.57;1.92;;;4.60;99.90;;;;;;5032963;28;20049;-29
2022/12/27 01:26:06;;;;;;;11.93;1.90;;;4.70;99.90;;;;;;5033892;28;20486;-30
2022/12/27 01:28:33;;;;;;;8.98;1.85;;;4.70;99.90;;;;;;5034295;28;20376;-30
2022/12/27 01:31:11;;;;;;;9.90;1.77;;;4.80;99.90;;;;;;5032782;28;20400;-30
2022/12/27 01:33:36;;;;;;;15.52;2.15;;;4.90;99.90;;;;;;5034068;28;20049;-30
2022/12/27 01:36:16;;;;;;;9.27;1.30;;;4.90;99.90;;;;;;5034206;28;20503;-30
2022/12/27 01:38:42;;;;;;;16.23;2.67;;;4.80;99.90;;;;;;5033644;28;20037;-30
2022/12/27 01:43:57;;;;;;;9.65;1.73;;;5.00;99.90;;;;;;5033600;28;20484;-30
2022/12/27 01:46:23;;;;;;;9.98;1.55;;;5.00;99.90;;;;;;5033576;28;20050;-30
2022/12/27 01:48:49;;;;;;;10.88;1.80;;;5.00;99.90;;;;;;5033751;28;20053;-30
2022/12/27 01:51:15;;;;;;;16.48;2.10;;;4.90;99.90;;;;;;5034120;28;20361;-30
2022/12/27 01:53:44;;;;;;;9.85;2.47;;;5.00;99.90;;;;;;5033557;28;20100;-30
2022/12/27 01:56:21;;;;;;;8.40;2.63;;;5.00;99.90;;;;;;5033464;28;20057;-30
2022/12/27 01:58:51;;;;;;;5.88;1.60;;;5.30;99.90;;;;;;5034509;28;20156;-30
2022/12/27 02:01:41;;;;;;;9.93;1.73;;;4.90;99.90;;;;;;5033470;28;20045;-29
2022/12/27 02:04:15;;;;;;;11.50;1.83;;;4.90;99.90;;;;;;5033485;28;20045;-29
2022/12/27 02:06:41;;;;;;;;;;;4.90;99.90;;;;;;5016530;28;20475;-29
2022/12/27 02:09:21;;;;;;;10.32;1.50;;;5.00;99.90;;;;;;5015832;28;20015;-29
2022/12/27 02:11:51;;;;;;;9.02;1.15;;;5.10;99.90;;;;;;5033368;28;20476;-29
2022/12/27 02:14:39;;;;;;;14.52;3.08;;;5.00;99.90;;;;;;5035824;28;20045;-30
2022/12/27 02:17:25;;;;;;;9.93;1.45;;;5.00;99.90;;;;;;5020779;28;20052;-29
2022/12/27 02:20:08;;;;;;;10.27;1.48;;;5.00;99.90;;;;;;5037069;28;20488;-29
2022/12/27 02:25:51;;;;;;;11.30;2.22;;;4.90;99.90;;;;;;5038047;28;20517;-29
2022/12/27 02:28:42;;;;;;;15.70;2.88;;;4.70;99.90;;;;;;5037898;28;20103;-30
2022/12/27 02:31:15;;;;;;;9.32;1.23;;;4.70;99.90;;;;;;5037923;28;20053;-29
2022/12/27 02:33:44;;;;;;;;;;;4.60;99.90;;;;;;5038098;28;20100;-29
2022/12/27 02:36:15;;;;;;;11.75;2.20;;;4.70;99.90;;;;;;5037562;28;20270;-30
2022/12/27 02:38:50;;;;;;;13.38;2.50;;;4.70;99.90;;;;;;5037563;28;20388;-30
2022/12/27 02:53:29;;;;;;;11.95;2.10;;;4.90;99.90;;;;;;5019249;28;20056;-29
2022/12/27 02:59:08;;;;;;;12.23;1.95;;;4.90;99.90;;;;;;5036908;28;20510;-30
2022/12/27 03:04:58;;;;;;;15.52;1.98;;;4.70;99.90;;;;;;5019316;28;20096;-29
2022/12/27 03:07:41;;;;;;;12.55;1.80;;;4.70;99.90;;;;;;5036535;28;20148;-29
2022/12/27 03:16:11;;;;;;;11.00;2.42;;;5.00;99.90;;;;;;5036280;28;20060;-28
2022/12/27 03:19:04;;;;;;;14.95;3.72;;;5.00;99.90;;;;;;5036791;28;20041;-28
2022/12/27 03:27:30;;;;;;;15.80;2.65;;;4.60;99.90;;;;;;5035807;28;20050;-29
2022/12/27 03:38:49;;;;;;;14.25;1.80;;;4.30;99.90;;;;;;5035823;28;20484;-29
2022/12/27 03:44:23;;;;;;;10.55;1.85;;;4.00;99.90;;;;;;5036556;28;20111;-28
2022/12/27 03:46:49;;;;;;;12.25;2.72;;;;;;;;;;5035771;28;20068;-29
2022/12/27 03:49:22;;;;;;;11.82;2.42;;;;;;;;;;5001688;28;20499;-30
2022/12/27 03:52:06;;;;;;;9.10;1.85;;;;;;;;;;5002742;28;20585;-30
2022/12/27 03:54:37;;;;;;;17.63;2.80;;;;;;;;;;5018109;28;20484;-30
2022/12/27 03:57:08;;;;;;;15.98;2.97;;;;;;;;;;5034864;28;20436;-30
2022/12/27 03:59:34;;;;;;;11.68;2.58;;;;;;;;;;5035509;28;20104;-30
2022/12/27 04:02:01;;;;;;;12.55;2.25;;;;;;;;;;5036184;28;20109;-30
2022/12/27 04:04:27;;;;;;;11.93;2.38;;;;;;;;;;5035328;28;20045;-30
2022/12/27 04:06:53;;;;;;;14.40;1.75;;;;;;;;;;5017733;28;20089;-30
2022/12/27 04:36:46;;;;;;;12.30;2.67;;;4.10;99.90;;;;;;5035187;28;20525;-30
2022/12/27 04:39:12;;;;;;;20.55;3.10;;;4.30;99.90;;;;;;5034599;28;20087;-29
2022/12/27 04:55:32;;;;;;;10.50;2.55;;;4.10;99.90;;;;;;5017793;28;20144;-29
2022/12/27 04:57:58;;;;;;;11.50;2.20;;;3.90;99.90;;;;;;5034176;28;20136;-26
2022/12/27 05:03:16;;;;;;;26.15;3.53;;;3.30;99.90;;;;;;5035060;28;20135;-26
2022/12/27 05:05:45;;;;;;;16.48;2.60;;;3.30;99.90;;;;;;5034399;28;20476;-26
2022/12/27 05:14:00;;;;;;;20.50;2.72;;;3.40;99.90;;;;;;5034836;28;20045;-28
2022/12/27 05:16:36;;;;;;;15.65;3.00;;;3.50;99.90;;;;;;5016297;28;20052;-28
2022/12/27 05:19:04;;;;;;;18.35;2.80;;;3.60;99.90;;;;;;5034208;28;20038;-28
2022/12/27 05:21:29;;;;;;;24.15;4.78;;;3.70;99.90;;;;;;5016181;28;20088;-28
2022/12/27 05:26:40;;;;;;;19.80;2.85;;;3.70;99.90;;;;;;5033860;28;20049;-29
2022/12/27 05:29:06;;;;;;;17.40;3.03;;;3.70;99.90;;;;;;5033765;28;20037;-28
2022/12/27 05:31:33;;;;;;;16.05;2.60;;;3.70;99.90;;;;;;5016453;28;20476;-28
2022/12/27 05:33:58;;;;;;;9.32;2.10;;;3.70;99.90;;;;;;5016205;28;20045;-28
2022/12/27 05:36:25;;;;;;;14.25;2.45;;;3.60;99.90;;;;;;5034346;28;20099;-29
2022/12/27 05:38:51;;;;;;;12.90;2.95;;;4.00;99.90;;;;;;5000300;28;20053;-29
2022/12/27 05:41:17;;;;;;;12.10;2.40;;;3.60;99.90;;;;;;5033747;28;20063;-29
2022/12/27 05:43:43;;;;;;;12.55;2.60;;;3.50;99.90;;;;;;5033689;28;20498;-29
2022/12/27 05:46:20;;;;;;;14.02;2.28;;;3.50;99.90;;;;;;5033639;28;20120;-29
2022/12/27 05:48:46;;;;;;;20.80;3.47;;;3.60;99.90;;;;;;5016382;28;20045;-29
2022/12/27 05:51:18;;;;;;;15.73;2.63;;;3.60;99.90;;;;;;5033611;28;20084;-29
2022/12/27 05:53:44;;;;;;;21.95;3.03;;;3.60;99.90;;;;;;5000138;28;20060;-29
2022/12/27 05:56:15;;;;;;;14.20;2.15;;;3.60;99.90;;;;;;5015978;28;20106;-29
2022/12/27 05:58:42;;;;;;;18.40;2.38;;;3.60;99.90;;;;;;5033356;28;20060;-29
2022/12/27 06:01:11;;;;;;;19.33;2.75;;;3.50;99.90;;;;;;5016055;28;20103;-29
2022/12/27 06:03:37;;;;;;;16.67;3.28;;;3.60;99.90;;;;;;5033489;28;20087;-29
2022/12/27 06:06:04;;;;;;;16.95;2.10;;;3.60;99.90;;;;;;5015977;28;20504;-29
2022/12/27 06:08:30;;;;;;;13.40;3.17;;;3.60;99.90;;;;;;5033369;28;20549;-29
2022/12/27 06:11:03;;;;;;;13.00;2.05;;;3.50;99.90;;;;;;5016757;28;20045;-29
2022/12/27 06:13:29;;;;;;;28.13;3.20;;;3.60;99.90;;;;;;5033418;28;20037;-29
2022/12/27 06:15:58;;;;;;;12.02;2.17;;;3.50;99.90;;;;;;5033355;28;20057;-29
2022/12/27 06:18:24;;;;;;;20.45;3.50;;;3.50;99.90;;;;;;5016263;28;20364;-29
2022/12/27 06:20:49;;;;;;;14.90;2.38;;;3.30;99.90;;;;;;5033397;28;20045;-29
2022/12/27 06:23:15;;;;;;;19.45;2.35;;;3.20;99.90;;;;;;5033236;28;20038;-29
2022/12/27 06:25:41;;;;;;;13.10;2.33;;;3.30;99.90;;;;;;5033632;28;20050;-29
2022/12/27 06:28:06;;;;;;;13.85;2.13;;;3.30;99.90;;;;;;4999576;28;20046;-29
2022/12/27 06:30:32;;;;;;;16.58;2.15;;;3.20;99.90;;;;;;5016158;28;20446;-29
2022/12/27 06:32:58;;;;;;;17.55;2.70;;;3.30;99.90;;;;;;5016094;28;20053;-29
2022/12/27 06:35:23;;;;;;;9.20;1.92;;;3.20;99.90;;;;;;5033201;28;20044;-29
2022/12/27 06:37:49;;;;;;;13.07;2.42;;;3.20;99.90;;;;;;5032934;28;20049;-29
2022/12/27 06:40:15;;;;;;;17.10;2.72;;;3.20;99.90;;;;;;5032864;28;20037;-29
2022/12/27 06:42:41;;;;;;;16.35;2.83;;;3.20;99.90;;;;;;5033424;28;20089;-29
2022/12/27 06:45:08;;;;;;;16.98;2.38;;;3.10;99.90;;;;;;5033132;28;20132;-29
2022/12/27 06:47:35;;;;;;;17.92;2.80;;;3.00;99.90;;;;;;5032897;28;20545;-29
2022/12/27 06:50:01;;;;;;;18.10;3.05;;;2.90;99.90;;;;;;5033020;28;20092;-28
2022/12/27 06:52:27;;;;;;;17.40;2.80;;;2.90;99.90;;;;;;5016148;28;20046;-28
2022/12/27 06:54:53;;;;;;;17.27;2.97;;;2.90;99.90;;;;;;5016545;28;20054;-28
2022/12/27 06:57:18;;;;;;;19.30;2.58;;;3.10;99.90;;;;;;5033204;28;20140;-28
2022/12/27 06:59:44;;;;;;;15.05;3.05;;;2.90;99.90;;;;;;5033943;28;20476;-27
2022/12/27 07:02:10;;;;;;;10.75;2.35;;;2.90;99.90;;;;;;5036979;28;20053;-28
2022/12/27 07:04:36;;;;;;;12.52;2.53;;;2.90;99.90;;;;;;5036564;28;20128;-28
2022/12/27 07:07:02;;;;;;;16.85;2.35;;;2.90;99.90;;;;;;5018831;28;20575;-28
2022/12/27 07:09:27;;;;;;;15.05;2.47;;;3.00;99.90;;;;;;5019617;28;20095;-28
2022/12/27 07:11:53;;;;;;;12.73;2.10;;;3.00;99.90;;;;;;5019025;28;20077;-28
2022/12/27 07:14:19;;;;;;;20.63;2.78;;;3.10;99.90;;;;;;5018729;28;20506;-28
2022/12/27 07:16:47;;;;;;;11.80;2.00;;;3.10;99.90;;;;;;5019529;28;20045;-28
2022/12/27 07:19:13;;;;;;;9.60;1.25;;;3.20;99.90;;;;;;5036364;28;20049;-28
2022/12/27 07:21:38;;;;;;;10.95;2.00;;;3.10;99.90;;;;;;5037079;28;20144;-28
2022/12/27 07:24:04;;;;;;;15.85;2.88;;;3.20;99.90;;;;;;5036473;28;20555;-28
2022/12/27 07:26:30;;;;;;;13.27;2.78;;;3.10;99.90;;;;;;5019550;28;20045;-27
2022/12/27 07:28:58;;;;;;;18.10;2.00;;;3.00;99.90;;;;;;5036345;28;20361;-28
2022/12/27 07:31:28;;;;;;;16.13;1.73;;;3.00;99.90;;;;;;5001965;28;20067;-28
2022/12/27 07:33:54;;;;;;;13.52;2.05;;;3.40;99.90;;;;;;5036038;28;20136;-28
2022/12/27 07:36:27;;;;;;;15.50;2.30;;;3.00;99.90;;;;;;5036545;28;20053;-28
2022/12/27 07:38:53;;;;;;;17.13;2.33;;;3.00;99.90;;;;;;5018857;28;20072;-27
2022/12/27 07:41:19;;;;;;;19.15;3.22;;;3.10;99.90;;;;;;5035861;28;20480;-28
2022/12/27 07:43:45;;;;;;;17.13;3.38;;;3.10;99.90;;;;;;5019182;28;20049;-28
2022/12/27 07:46:17;;;;;;;10.98;3.83;;;3.20;99.90;;;;;;5001730;28;20107;-28
2022/12/27 07:48:43;;;;;;;16.38;1.63;;;3.20;99.90;;;;;;5035706;28;20049;-28
2022/12/27 07:51:10;;;;;;;16.80;3.78;;;3.20;99.90;;;;;;5035683;28;20095;-28
2022/12/27 07:53:36;;;;;;;17.77;2.42;;;3.20;99.90;;;;;;5035689;28;20188;-28
2022/12/27 07:56:10;;;;;;;14.05;2.30;;;3.10;99.90;;;;;;5018107;28;20056;-28
2022/12/27 07:58:40;;;;;;;17.08;2.85;;;3.10;99.90;;;;;;5035584;28;20061;-28
2022/12/27 08:01:07;;;;;;;17.65;2.00;;;2.90;99.90;;;;;;5017944;28;20053;-28
2022/12/27 08:03:33;;;;;;;18.88;3.22;;;2.90;99.90;;;;;;5035093;28;20056;-28
2022/12/27 08:05:59;;;;;;;16.27;2.35;;;2.80;99.90;;;;;;5035420;28;20132;-28
2022/12/27 08:08:31;;;;;;;20.52;2.30;;;2.80;99.90;;;;;;5035388;28;20183;-28
2022/12/27 08:10:57;;;;;;;12.83;2.10;;;2.80;99.90;;;;;;5034983;28;20046;-28
2022/12/27 08:13:23;;;;;;;11.23;2.13;;;2.80;99.90;;;;;;5017840;28;20045;-28
2022/12/27 08:15:50;;;;;;;6.47;1.80;;;2.80;99.90;;;;;;5018146;28;20053;-28
2022/12/27 08:18:16;;;;;;;13.50;2.58;;;2.90;99.90;;;;;;5035074;28;20045;-28
2022/12/27 08:20:42;;;;;;;14.60;2.65;;;2.90;99.90;;;;;;5035333;28;20124;-28
2022/12/27 08:23:07;;;;;;;9.85;1.70;;;3.10;99.90;;;;;;5035636;28;20050;-28
2022/12/27 08:25:33;;;;;;;18.67;2.53;;;3.20;99.90;;;;;;5001304;28;20080;-27
2022/12/27 08:28:09;;;;;;;16.52;2.72;;;3.30;99.90;;;;;;5017498;28;20103;-28
2022/12/27 08:30:36;;;;;;;17.92;2.72;;;3.30;99.90;;;;;;5017122;28;20050;-28
2022/12/27 08:33:03;;;;;;;16.00;1.92;;;3.30;99.90;;;;;;5034875;28;20128;-28
2022/12/27 08:35:29;;;;;;;14.02;2.22;;;3.30;99.90;;;;;;5017677;28;20124;-28
2022/12/27 08:37:55;;;;;;;15.23;2.60;;;3.40;99.90;;;;;;5034838;28;20096;-28
2022/12/27 08:40:20;;;;;;;14.70;2.75;;;3.40;99.90;;;;;;5017229;28;20085;-28
2022/12/27 08:42:46;;;;;;;17.92;3.42;;;3.40;99.90;;;;;;5035270;28;20045;-28
2022/12/27 08:45:13;;;;;;;18.67;3.05;;;3.50;99.90;;;;;;5034646;28;20042;-28
2022/12/27 08:47:38;;;;;;;13.60;2.07;;;3.50;99.90;;;;;;5018076;28;20041;-28
2022/12/27 08:50:06;;;;;;;13.45;2.05;;;3.50;99.90;;;;;;5034520;28;20045;-28
2022/12/27 08:52:32;;;;;;;17.65;2.58;;;3.50;99.90;;;;;;5034518;28;20137;-28
2022/12/27 08:54:58;;;;;;;21.35;4.10;;;3.50;99.90;;;;;;5034443;28;20049;-28
2022/12/27 08:57:24;;;;;;;17.63;1.92;;;3.50;99.90;;;;;;5034869;28;20114;-28
2022/12/27 08:59:49;;;;;;;16.77;2.50;;;3.40;99.90;;;;;;5034444;28;20480;-28
2022/12/27 09:02:15;;;;;;;15.05;2.60;;;3.40;99.90;;;;;;5016815;28;20395;-28
2022/12/27 09:04:40;;;;;;;20.17;3.13;;;3.30;99.90;;;;;;5034927;28;20118;-28
2022/12/27 09:07:06;;;;;;;14.18;2.30;;;3.20;99.90;;;;;;5016763;28;20045;-28
2022/12/27 09:09:32;;;;;;;19.30;2.72;;;3.30;99.90;;;;;;5000176;28;20041;-28
2022/12/27 09:11:58;;;;;;;14.13;2.10;;;3.30;99.90;;;;;;5034207;28;20064;-28
2022/12/27 09:14:23;;;;;;;13.50;2.42;;;3.30;99.90;;;;;;5001182;28;20483;-28
2022/12/27 09:16:49;;;;;;;13.88;2.60;;;3.30;99.90;;;;;;5016513;28;20041;-28
2022/12/27 09:19:15;;;;;;;13.20;2.25;;;3.40;99.90;;;;;;5034122;28;20059;-28
2022/12/27 09:21:42;;;;;;;14.95;2.20;;;3.50;99.90;;;;;;5033988;28;20045;-28
2022/12/27 09:24:12;;;;;;;19.98;2.72;;;3.50;99.90;;;;;;5033324;28;20103;-28
2022/12/27 09:26:38;;;;;;;13.10;2.80;;;3.60;99.90;;;;;;5033942;28;20058;-28
2022/12/27 09:29:04;;;;;;;15.95;3.17;;;3.60;99.90;;;;;;5033883;28;20042;-28
2022/12/27 09:31:30;;;;;;;19.35;2.72;;;3.70;99.90;;;;;;5033872;28;20099;-28
2022/12/27 09:33:57;;;;;;;24.40;5.07;;;3.70;99.90;;;;;;5016290;28;20045;-29
2022/12/27 09:36:26;;;;;;;12.52;2.72;;;3.80;99.90;;;;;;5033477;28;20072;-28
2022/12/27 09:38:53;;;;;;;19.30;2.70;;;3.70;99.90;;;;;;5016150;28;20062;-28
2022/12/27 09:41:53;;;;;;;21.70;3.13;;;3.80;99.90;;;;;;5033763;28;20037;-28
2022/12/27 09:44:54;;;;;;;12.77;2.70;;;3.80;99.90;;;;;;5034303;28;20081;-28
2022/12/27 09:47:27;;;;;;;14.15;2.40;;;3.90;99.90;;;;;;5034223;28;20099;-28
2022/12/27 09:50:12;;;;;;;7.45;1.80;;;3.90;99.90;;;;;;5016299;28;20476;-28
2022/12/27 09:53:08;;;;;;;12.85;2.10;;;4.00;99.90;;;;;;5016041;28;20057;-28
2022/12/27 09:55:50;;;;;;;11.55;2.75;;;4.10;99.90;;;;;;5020691;28;20492;-28
2022/12/27 09:58:39;;;;;;;24.35;4.40;;;4.10;99.90;;;;;;5022976;28;20065;-28
2022/12/27 10:01:24;;;;;;;20.98;4.90;;;4.20;99.90;;;;;;5033513;28;20623;-28
2022/12/27 10:03:51;;;;;;;16.20;3.20;;;4.30;99.90;;;;;;5033428;28;20045;-28
2022/12/27 10:06:43;;;;;;;15.35;2.20;;;4.40;99.90;;;;;;5032810;28;20052;-28
2022/12/27 10:09:42;;;;;;;14.35;1.95;;;4.40;99.90;;;;;;5033364;28;20136;-29
2022/12/27 10:12:34;;;;;;;12.95;2.50;;;4.50;99.90;;;;;;5033503;28;20057;-28
2022/12/27 10:15:18;;;;;;;12.85;2.80;;;4.60;99.90;;;;;;5034080;28;20089;-28
2022/12/27 10:17:52;;;;;;;18.60;3.35;;;4.70;99.90;;;;;;5033888;28;20060;-28
2022/12/27 10:20:24;;;;;;;14.52;2.90;;;4.80;99.90;;;;;;5033625;28;20041;-28
2022/12/27 10:22:57;;;;;;;17.48;3.38;;;4.90;99.90;;;;;;5032715;28;20052;-28
2022/12/27 10:25:25;;;;;;;12.48;2.47;;;4.90;99.90;;;;;;5033455;28;20056;-28
2022/12/27 10:27:58;;;;;;;17.60;3.03;;;5.10;99.90;;;;;;5033321;28;20057;-28
2022/12/27 10:30:25;;;;;;;8.75;2.58;;;5.30;99.90;;;;;;5033854;28;20049;-28
2022/12/27 10:32:52;;;;;;;15.00;1.92;;;5.30;99.90;;;;;;5032083;28;20068;-28
2022/12/27 10:35:20;;;;;;;13.93;2.75;;;5.40;99.90;;;;;;5035540;28;20118;-29
2022/12/27 10:37:47;;;;;;;12.02;2.35;;;5.40;99.90;;;;;;5037619;28;20053;-28
2022/12/27 10:40:34;;;;;;;11.27;3.08;;;5.40;99.90;;;;;;5037058;28;20175;-28
2022/12/27 10:43:16;;;;;;;14.02;2.80;;;5.40;99.90;;;;;;5037361;28;20132;-28
2022/12/27 10:45:42;;;;;;;11.43;1.73;;;5.40;99.90;;;;;;5037817;28;20111;-28
2022/12/27 10:48:28;;;;;;;10.75;2.03;;;5.50;99.90;;;;;;5036691;28;20049;-28
2022/12/27 10:51:00;;;;;;;11.40;1.95;;;5.50;99.90;;;;;;5036778;28;20103;-28
2022/12/27 10:53:36;;;;;;;13.15;1.92;;;5.60;99.90;;;;;;5037358;28;20051;-28
2022/12/27 10:56:15;;;;;;;12.63;3.08;;;5.60;99.90;;;;;;5036654;28;20041;-29
2022/12/27 10:58:45;;;;;;;13.18;2.72;;;5.70;99.90;;;;;;5035364;28;20480;-28
2022/12/27 11:01:29;;;;;;;10.10;1.90;;;5.70;99.90;;;;;;5036643;28;20053;-28
2022/12/27 11:04:14;;;;;;;11.30;2.45;;;5.80;99.90;;;;;;5036562;28;20099;-28
2022/12/27 11:06:41;;;;;;;13.80;2.05;;;5.80;99.90;;;;;;5037439;28;20372;-28
2022/12/27 11:09:28;;;;;;;12.73;2.83;;;6.00;99.90;;;;;;5036417;28;20045;-28
2022/12/27 11:12:14;;;;;;;10.25;2.00;;;6.00;99.90;;;;;;5037096;28;20060;-29
2022/12/27 11:14:52;;;;;;;10.85;2.20;;;6.10;99.90;;;;;;5036478;28;20135;-29
2022/12/27 11:17:24;;;;;;;31.52;3.53;;;6.20;99.90;;;;;;5036943;28;20053;-29
2022/12/27 11:19:50;;;;;;;15.80;2.30;;;6.20;99.90;;;;;;5036617;28;20049;-28
2022/12/27 11:22:16;;;;;;;14.57;2.10;;;6.30;99.90;;;;;;5036796;28;20053;-28
2022/12/27 11:24:46;;;;;;;7.22;1.90;;;6.30;99.90;;;;;;5035036;28;20045;-29
2022/12/27 11:27:26;;;;;;;11.13;2.22;;;6.20;99.90;;;;;;5036157;28;20053;-29
2022/12/27 11:29:55;;;;;;;5.47;1.60;;;6.30;99.90;;;;;;5034942;28;20368;-29
2022/12/27 11:32:22;;;;;;;7.93;2.40;;;6.20;99.90;;;;;;5036187;28;20107;-29
2022/12/27 11:34:50;;;;;;;10.13;1.90;;;6.20;99.90;;;;;;5036534;28;20376;-29
2022/12/27 11:37:19;;;;;;;10.35;2.03;;;6.20;99.90;;;;;;5035293;28;20053;-29
2022/12/27 11:39:51;;;;;;;12.73;2.05;;;6.30;99.90;;;;;;5034718;28;20104;-29
2022/12/27 11:42:37;;;;;;;14.02;1.85;;;6.40;99.90;;;;;;5036742;28;20046;-29
2022/12/27 11:45:15;;;;;;;13.70;2.20;;;6.40;99.90;;;;;;5035945;28;20050;-29
2022/12/27 11:47:52;;;;;;;15.05;2.00;;;6.40;99.90;;;;;;5034820;28;20554;-29
2022/12/27 11:50:27;;;;;;;11.38;2.25;;;6.50;99.90;;;;;;5034539;28;20052;-29
2022/12/27 11:53:39;;;;;;;10.32;1.75;;;6.40;99.90;;;;;;5036082;28;20049;-29
2022/12/27 11:56:29;;;;;;;12.60;2.05;;;6.40;99.90;;;;;;5035713;28;20073;-29
2022/12/27 11:59:09;;;;;;;11.43;2.33;;;6.40;99.90;;;;;;5035691;28;20073;-29
2022/12/27 12:01:57;;;;;;;12.80;2.33;;;6.40;99.90;;;;;;5035540;28;20136;-29
2022/12/27 12:04:32;;;;;;;8.30;1.63;;;6.30;99.90;;;;;;5035403;28;20084;-29
2022/12/27 12:07:27;;;;;;;12.98;2.05;;;6.30;99.90;;;;;;5035446;28;20053;-29
2022/12/27 12:10:14;;;;;;;15.00;2.88;;;6.30;99.90;;;;;;5022861;28;20072;-29
2022/12/27 12:12:58;;;;;;;10.40;2.45;;;6.30;99.90;;;;;;5035666;28;20068;-29
2022/12/27 12:15:53;;;;;;;11.77;1.90;;;6.20;99.90;;;;;;5035880;28;20053;-29
2022/12/27 12:18:47;;;;;;;8.93;1.83;;;6.20;99.90;;;;;;5035775;28;20049;-29
2022/12/27 12:21:31;;;;;;;;;;;6.10;99.90;;;;;;5035673;28;20135;-29
2022/12/27 12:24:28;;;;;;;12.93;2.10;;;6.00;99.90;;;;;;5035100;28;19921;-29
2022/12/27 12:27:08;;;;;;;11.65;2.17;;;6.00;99.90;;;;;;5017628;28;20050;-29
2022/12/27 12:29:34;;;;;;;9.52;1.67;;;6.10;99.90;;;;;;5035028;28;20206;-29
2022/12/27 12:32:15;;;;;;;13.60;2.40;;;6.20;99.90;;;;;;5035818;28;20053;-29
2022/12/27 12:34:59;;;;;;;14.85;1.95;;;6.40;99.90;;;;;;5034906;28;20118;-29
2022/12/27 12:37:59;;;;;;;11.68;2.13;;;6.60;99.90;;;;;;5035306;28;20049;-29
2022/12/27 12:40:50;;;;;;;9.63;1.73;;;6.70;99.90;;;;;;5035349;28;20071;-29
2022/12/27 12:43:39;;;;;;;13.45;1.70;;;6.70;99.90;;;;;;5017900;28;20080;-29
2022/12/27 12:46:41;;;;;;;14.63;2.10;;;6.70;99.90;;;;;;5035285;28;20064;-29
2022/12/27 12:49:44;;;;;;;13.30;2.25;;;6.70;99.90;;;;;;5034607;28;20049;-29
2022/12/27 12:52:43;;;;;;;15.48;2.17;;;6.70;99.90;;;;;;5017442;28;20049;-29
2022/12/27 12:55:38;;;;;;;14.70;2.35;;;6.60;99.90;;;;;;5035084;28;20050;-29
2022/12/27 12:58:10;;;;;;;10.93;2.08;;;6.60;99.90;;;;;;5033504;28;20061;-29
2022/12/27 13:00:42;;;;;;;8.10;1.55;;;6.50;99.90;;;;;;5034775;28;20045;-29
2022/12/27 13:03:39;;;;;;;10.05;1.27;;;6.50;99.90;;;;;;5034352;28;20045;-29
2022/12/27 13:06:42;;;;;;;11.80;1.60;;;6.40;99.90;;;;;;5035093;28;20046;-29
2022/12/27 13:09:34;;;;;;;15.40;2.10;;;6.40;99.90;;;;;;5000832;28;20042;-29
2022/12/27 13:12:44;;;;;;;12.50;1.73;;;6.40;99.90;;;;;;5017671;28;20115;-28
2022/12/27 13:15:47;;;;;;;5.75;1.38;;;6.30;99.90;;;;;;4979355;28;20068;-29
2022/12/27 13:18:25;;;;;;;12.63;2.35;;;6.30;99.90;;;;;;5016974;28;20049;-29
2022/12/27 13:21:29;;;;;;;11.75;2.00;;;6.30;99.90;;;;;;5033995;28;20041;-29
2022/12/27 13:24:04;;;;;;;15.52;2.53;;;6.20;99.90;;;;;;5034122;28;20057;-29
2022/12/27 13:26:45;;;;;;;10.25;2.00;;;6.10;99.90;;;;;;5034043;28;20080;-29
2022/12/27 13:29:25;;;;;;;17.55;2.80;;;6.00;99.90;;;;;;5034447;28;20046;-29
2022/12/27 13:32:07;;;;;;;10.50;2.95;;;5.90;99.90;;;;;;5033907;28;20056;-29
2022/12/27 13:34:41;;;;;;;18.50;3.30;;;5.80;99.90;;;;;;5017323;28;20041;-29
2022/12/27 13:37:42;;;;;;;6.72;1.73;;;5.70;99.90;;;;;;5034665;28;20045;-29
2022/12/27 13:40:27;;;;;;;12.60;2.70;;;5.60;99.90;;;;;;4979071;28;20486;-29
2022/12/27 13:43:17;;;;;;;8.15;1.52;;;5.60;99.90;;;;;;5034292;28;20387;-29
2022/12/27 13:45:46;;;;;;;15.00;2.63;;;5.50;99.90;;;;;;5034583;28;20422;-29
2022/12/27 13:48:22;;;;;;;13.38;2.55;;;5.40;99.90;;;;;;5034449;28;20045;-29
2022/12/27 13:50:54;;;;;;;17.55;4.03;;;5.30;99.90;;;;;;5016176;28;20152;-29
2022/12/27 13:53:37;;;;;;;23.50;3.22;;;5.20;99.90;;;;;;5033594;28;20049;-29
2022/12/27 13:56:26;;;;;;;;;;;5.20;99.90;;;;;;5017475;28;20057;-28
2022/12/27 13:59:11;;;;;;;17.95;3.55;;;5.20;99.90;;;;;;5025348;28;19929;-28
2022/12/27 14:02:14;;;;;;;15.70;3.63;;;5.20;99.90;;;;;;5012590;28;20056;-29
2022/12/27 14:04:53;;;;;;;14.27;3.00;;;5.20;99.90;;;;;;5033521;28;20102;-28
2022/12/27 14:07:36;;;;;;;11.23;4.57;;;5.20;99.90;;;;;;5034354;28;20045;-29
2022/12/27 14:10:10;;;;;;;18.38;4.20;;;5.20;99.90;;;;;;5018725;28;20045;-28
2022/12/27 14:12:58;;;;;;;14.15;4.30;;;5.30;99.90;;;;;;5020517;28;20061;-28
2022/12/27 14:15:54;;;;;;;14.15;4.10;;;5.40;99.90;;;;;;5037420;28;20167;-29
2022/12/27 14:18:47;;;;;;;10.30;2.70;;;5.40;99.90;;;;;;5037757;28;20045;-28
2022/12/27 14:21:34;;;;;;;11.30;3.45;;;5.50;99.90;;;;;;5037919;28;20053;-29
2022/12/27 14:24:34;;;;;;;23.27;5.30;;;5.50;99.90;;;;;;5038237;28;20383;-28
2022/12/27 14:27:28;;;;;;;15.40;4.25;;;5.50;99.90;;;;;;5037304;28;20411;-28
2022/12/27 14:30:21;;;;;;;15.65;4.78;;;5.50;99.90;;;;;;4995089;28;20045;-28
2022/12/27 14:33:31;;;;;;;15.73;4.07;;;5.50;99.90;;;;;;5037304;28;20053;-29
2022/12/27 14:36:03;;;;;;;12.27;4.90;;;5.50;99.90;;;;;;5037154;28;20045;-28
2022/12/27 14:39:00;;;;;;;20.35;5.68;;;5.50;99.90;;;;;;5037679;28;20055;-28
2022/12/27 14:41:47;;;;;;;15.75;4.03;;;5.50;99.90;;;;;;5004065;28;20060;-28
2022/12/27 14:44:40;;;;;;;13.02;3.80;;;5.50;99.90;;;;;;5037631;28;20106;-28
2022/12/27 14:47:44;;;;;;;12.13;4.18;;;5.40;99.90;;;;;;5037804;28;20045;-28
2022/12/27 14:50:32;;;;;;;14.82;5.25;;;5.50;99.90;;;;;;5037616;28;20095;-28
2022/12/27 14:53:22;;;;;;;12.95;4.28;;;5.50;99.90;;;;;;5037429;28;20095;-28
2022/12/27 14:56:14;;;;;;;15.38;5.05;;;5.40;99.90;;;;;;5036798;28;20052;-29
2022/12/27 14:59:12;;;;;;;14.50;4.55;;;5.30;99.90;;;;;;5036223;28;20061;-29
2022/12/27 15:02:17;;;;;;;13.27;4.38;;;5.20;99.90;;;;;;4982561;28;20384;-29
2022/12/27 15:04:57;;;;;;;16.02;5.60;;;5.10;99.90;;;;;;5019739;28;20387;-29
2022/12/27 15:07:59;;;;;;;19.42;6.03;;;5.10;99.90;;;;;;5037160;28;20045;-29
2022/12/27 15:10:42;;;;;;;16.80;6.07;;;5.00;99.90;;;;;;5036451;28;20546;-28
2022/12/27 15:13:53;;;;;;;14.48;5.15;;;5.00;99.90;;;;;;5019364;28;20053;-28